Time;durP1;ratioP1;P1;durP2;ratioP2;P2;SDS_P1;SDS_P2;PMS_P1;PMS_P2;Temp;Humidity;BMP_temperature;BMP_pressure;BME280_temperature;BME280_humidity;BME280_pressure;Samples;Min_cycle;Max_cycle;Signal;HPM_P1;HPM_P2
2023/09/28 00:01:36;;;;;;;11.50;5.93;;;;;;;16.91;79.09;100028.94;6205627;23;20028;-88
2023/09/28 00:04:06;;;;;;;10.52;5.53;;;;;;;16.96;79.01;100038.34;6205371;23;20025;-89
2023/09/28 00:06:33;;;;;;;8.45;5.65;;;;;;;16.91;79.09;100036.16;6181237;23;20029;-89
2023/09/28 00:09:00;;;;;;;6.88;5.38;;;;;;;16.87;78.86;100026.81;6155167;23;20156;-89
2023/09/28 00:11:27;;;;;;;10.18;5.65;;;;;;;16.90;78.95;100031.81;6155669;23;20376;-88
2023/09/28 00:13:54;;;;;;;10.27;5.65;;;;;;;16.92;78.81;100043.22;6205460;23;20024;-89
2023/09/28 00:16:21;;;;;;;8.40;5.82;;;;;;;16.86;78.85;100038.53;6155687;23;20078;-89
2023/09/28 00:18:48;;;;;;;10.25;5.88;;;;;;;16.89;79.03;100043.53;6156017;23;20023;-89
2023/09/28 00:21:15;;;;;;;8.52;5.80;;;;;;;16.89;79.13;100048.91;6156472;23;20098;-88
2023/09/28 00:23:42;;;;;;;8.23;5.50;;;;;;;16.85;79.06;100036.84;6206993;23;20021;-88
2023/09/28 00:26:09;;;;;;;8.88;5.07;;;;;;;16.83;79.02;100045.06;6155990;23;20040;-89
2023/09/28 00:28:37;;;;;;;9.00;5.40;;;;;;;16.83;78.50;100044.22;6180658;23;20026;-88
2023/09/28 00:31:05;;;;;;;7.97;5.10;;;;;;;16.78;78.40;100042.06;6205469;23;20027;-88
2023/09/28 00:33:32;;;;;;;7.88;5.18;;;;;;;16.78;78.27;100046.59;6156714;23;20039;-88
2023/09/28 00:35:59;;;;;;;6.95;5.45;;;;;;;16.75;78.09;100044.22;6180548;23;20453;-87
2023/09/28 00:38:25;;;;;;;7.45;4.93;;;;;;;16.73;78.14;100040.88;6180301;23;20078;-89
2023/09/28 00:40:52;;;;;;;8.30;5.72;;;;;;;16.72;78.25;100050.78;6156536;23;20024;-88
2023/09/28 00:43:26;;;;;;;9.15;5.63;;;;;;;16.67;78.32;100053.13;6180478;23;20421;-89
2023/09/28 00:45:52;;;;;;;7.35;5.35;;;;;;;16.71;78.57;100057.97;6180622;23;20356;-88
2023/09/28 00:48:20;;;;;;;9.25;5.38;;;;;;;16.74;78.41;100055.94;6180235;23;20025;-88
2023/09/28 00:50:47;;;;;;;7.45;5.72;;;;;;;16.69;78.59;100040.38;6155078;23;20029;-89
2023/09/28 00:53:20;;;;;;;9.95;5.57;;;;;;;16.70;77.92;100044.72;6181466;23;20021;-89
2023/09/28 00:55:48;;;;;;;7.18;5.13;;;;;;;16.67;78.14;100040.53;6156801;23;20047;-88
2023/09/28 00:58:15;;;;;;;12.50;6.03;;;;;;;16.69;78.04;100035.03;6180801;23;20028;-89
2023/09/28 01:00:42;;;;;;;8.80;5.20;;;;;;;16.67;78.05;100040.53;6156305;23;20092;-89
2023/09/28 01:03:11;;;;;;;10.40;5.35;;;;;;;16.67;78.21;100039.72;6155983;23;20032;-88
2023/09/28 01:05:40;;;;;;;7.00;5.10;;;;;;;16.65;78.07;100047.09;6157326;23;20016;-89
2023/09/28 01:08:12;;;;;;;10.45;5.07;;;;;;;16.66;77.93;100043.38;6180418;23;20079;-88
2023/09/28 01:10:40;;;;;;;9.05;5.47;;;;;;;16.62;78.32;100034.03;6205536;23;20028;-88
2023/09/28 01:13:12;;;;;;;6.68;4.97;;;;;;;16.63;78.09;100036.53;6182850;23;20032;-88
2023/09/28 01:15:40;;;;;;;7.68;5.50;;;;;;;16.60;77.92;100050.28;6207626;23;20063;-88
2023/09/28 01:18:11;;;;;;;8.65;5.85;;;;;;;16.57;77.81;100045.25;6205630;23;20021;-88
2023/09/28 01:20:39;;;;;;;7.20;5.40;;;;;;;16.57;78.00;100055.97;6156997;23;20027;-88
2023/09/28 01:23:06;;;;;;;8.27;5.40;;;;;;;16.55;77.65;100049.94;6157259;23;20075;-89
2023/09/28 01:25:33;;;;;;;7.93;5.03;;;;;;;16.52;77.62;100052.97;6181380;23;20544;-88
2023/09/28 01:28:00;;;;;;;10.70;5.57;;;;;;;16.57;77.97;100057.81;6156896;23;20043;-89
2023/09/28 01:30:27;;;;;;;9.20;5.50;;;;;;;16.55;78.19;100041.06;6181853;23;20025;-89
2023/09/28 01:32:54;;;;;;;8.52;4.95;;;;;;;16.52;78.29;100047.59;6182751;23;20357;-89
2023/09/28 01:35:23;;;;;;;7.97;5.60;;;;;;;16.49;78.36;100045.28;6132425;23;20020;-89
2023/09/28 01:38:13;;;;;;;8.35;5.70;;;;;;;16.44;77.82;100052.97;6156548;23;20096;-88
2023/09/28 01:40:41;;;;;;;8.13;5.53;;;;;;;16.49;78.14;100048.78;6180515;23;20449;-88
2023/09/28 01:43:10;;;;;;;9.82;5.65;;;;;;;16.49;78.40;100051.47;6157616;23;20392;-89
2023/09/28 01:45:37;;;;;;;9.13;5.05;;;;;;;16.49;78.39;100042.59;6204731;23;20766;-89
2023/09/28 01:48:04;;;;;;;9.85;5.85;;;;;;;16.50;78.30;100047.75;6180674;23;20017;-88
2023/09/28 01:50:32;;;;;;;8.48;5.80;;;;;;;16.46;78.25;100038.41;6156022;23;20444;-89
2023/09/28 01:52:59;;;;;;;7.80;5.30;;;;;;;16.46;78.32;100037.53;6180797;23;20333;-89
2023/09/28 01:55:25;;;;;;;7.35;5.53;;;;;;;16.46;78.57;100050.94;6156144;23;20070;-89
2023/09/28 01:57:52;;;;;;;10.85;5.85;;;;;;;16.46;78.57;100040.22;6131150;23;20354;-88
2023/09/28 02:00:20;;;;;;;6.65;5.00;;;;;;;16.46;78.32;100037.53;6131520;23;20028;-89
2023/09/28 02:02:49;;;;;;;8.48;5.38;;;;;;;16.48;78.38;100036.38;6156363;23;20398;-87
2023/09/28 02:05:17;;;;;;;8.23;5.32;;;;;;;16.46;78.61;100046.44;6206674;23;20020;-89
2023/09/28 02:07:45;;;;;;;8.05;5.80;;;;;;;16.44;78.51;100061.03;6155665;23;20020;-88
2023/09/28 02:10:12;;;;;;;10.73;5.22;;;;;;;16.43;78.51;100052.13;6181529;23;20024;-88
2023/09/28 02:12:39;;;;;;;8.15;5.80;;;;;;;16.44;78.66;100058.34;6181258;23;20448;-89
2023/09/28 02:15:09;;;;;;;7.95;5.60;;;;;;;16.41;78.87;100058.66;6181585;23;20036;-87
2023/09/28 02:17:37;;;;;;;8.82;5.50;;;;;;;16.39;78.38;100061.50;6133627;23;20349;-88
2023/09/28 02:20:10;;;;;;;7.32;5.07;;;;;;;16.36;78.54;100052.97;6155850;23;20017;-88
2023/09/28 02:22:43;;;;;;;7.78;5.40;;;;;;;16.37;78.65;100058.16;6180474;23;20028;-88
2023/09/28 02:25:15;;;;;;;8.43;5.10;;;;;;;16.36;78.36;100053.81;6157510;23;20020;-88
2023/09/28 02:27:43;;;;;;;6.45;5.00;;;;;;;16.32;78.44;100057.81;6157040;23;20026;-89
2023/09/28 02:30:12;;;;;;;7.35;5.32;;;;;;;16.28;78.59;100057.34;6181243;23;20028;-88
2023/09/28 02:32:43;;;;;;;7.03;5.20;;;;;;;16.28;78.77;100059.16;6155913;23;20024;-89
2023/09/28 02:35:14;;;;;;;7.82;4.70;;;;;;;16.28;78.67;100061.84;6157507;23;20025;-89
2023/09/28 02:37:43;;;;;;;6.18;5.28;;;;;;;16.28;78.46;100060.00;6179930;23;20396;-89
2023/09/28 02:40:11;;;;;;;7.43;4.72;;;;;;;16.27;78.55;100055.66;6156478;23;20408;-88
2023/09/28 02:42:39;;;;;;;6.10;4.82;;;;;;;16.25;78.68;100062.19;6156513;23;20021;-89
2023/09/28 02:45:11;;;;;;;6.88;4.57;;;;;;;16.26;78.55;100066.53;6182047;23;20067;-87
2023/09/28 02:47:43;;;;;;;6.97;4.78;;;;;;;16.24;78.54;100071.22;6134373;23;20377;-88
2023/09/28 02:50:12;;;;;;;5.78;5.07;;;;;;;16.25;77.98;100062.19;6157386;23;20465;-88
2023/09/28 02:52:42;;;;;;;5.78;4.88;;;;;;;16.25;77.96;100064.84;6180144;23;20357;-89
2023/09/28 02:55:13;;;;;;;6.85;5.07;;;;;;;16.20;78.00;100070.69;6179413;23;20032;-89
2023/09/28 02:57:41;;;;;;;7.10;4.80;;;;;;;16.18;78.10;100062.03;6157290;23;20041;-89
2023/09/28 03:02:50;;;;;;;7.72;4.75;;;;;;;16.18;78.09;100079.91;6183094;23;20107;-89
2023/09/28 03:05:19;;;;;;;8.27;4.85;;;;;;;16.15;78.47;100082.94;6155042;23;20090;-88
2023/09/28 03:07:46;;;;;;;6.72;4.43;;;;;;;16.14;78.27;100079.41;6179603;23;20087;-88
2023/09/28 03:10:13;;;;;;;5.85;4.38;;;;;;;16.16;78.13;100084.63;6180682;23;20031;-88
2023/09/28 03:12:42;;;;;;;6.53;4.75;;;;;;;16.16;78.00;100096.19;6155173;23;20032;-88
2023/09/28 03:15:10;;;;;;;7.57;4.82;;;;;;;16.14;78.41;100084.78;6155292;23;20036;-87
2023/09/28 03:17:39;;;;;;;6.80;4.25;;;;;;;16.13;78.36;100088.47;6131335;23;20025;-87
2023/09/28 03:20:10;;;;;;;7.82;4.90;;;;;;;16.14;78.20;100091.97;6155680;23;20481;-87
2023/09/28 03:22:37;;;;;;;5.18;4.68;;;;;;;16.06;78.25;100090.13;6155509;23;20020;-88
2023/09/28 03:25:07;;;;;;;10.15;4.57;;;;;;;16.08;78.44;100093.50;6179722;23;20024;-88
2023/09/28 03:27:34;;;;;;;7.22;4.75;;;;;;;16.08;78.35;100100.66;6155893;23;20017;-88
2023/09/28 03:30:00;;;;;;;8.05;5.32;;;;;;;16.04;78.59;100095.63;6157441;23;20096;-87
2023/09/28 03:32:27;;;;;;;8.00;4.40;;;;;;;16.06;78.49;100103.53;6205638;23;20031;-87
2023/09/28 03:34:54;;;;;;;5.85;4.68;;;;;;;16.05;78.49;100099.16;6181664;23;20099;-87
2023/09/28 03:37:21;;;;;;;6.78;4.65;;;;;;;16.06;78.49;100111.56;6155350;23;20020;-86
2023/09/28 03:39:49;;;;;;;8.40;4.40;;;;;;;16.03;78.63;100104.69;6182466;23;20071;-87
2023/09/28 03:42:15;;;;;;;6.97;4.72;;;;;;;16.05;78.65;100109.88;6205083;23;20020;-87
2023/09/28 03:44:42;;;;;;;6.68;5.15;;;;;;;16.02;79.10;100112.88;6181691;23;20028;-87
2023/09/28 03:47:10;;;;;;;7.85;5.38;;;;;;;16.03;78.59;100109.22;6180783;23;20031;-87
2023/09/28 03:49:42;;;;;;;6.30;4.50;;;;;;;15.98;78.78;100104.34;6205085;23;20020;-87
2023/09/28 03:52:09;;;;;;;5.88;4.82;;;;;;;16.02;78.70;100111.03;6153490;23;20032;-87
2023/09/28 03:54:36;;;;;;;9.13;4.63;;;;;;;16.04;78.74;100105.53;6205793;23;20031;-88
2023/09/28 03:57:03;;;;;;;6.05;5.28;;;;;;;16.02;79.02;100102.16;6205238;23;20384;-87
2023/09/28 03:59:30;;;;;;;6.97;4.63;;;;;;;16.03;78.96;100106.53;6180028;23;20044;-87
2023/09/28 04:01:57;;;;;;;8.88;5.43;;;;;;;16.01;78.72;100109.38;6156621;23;20372;-88
2023/09/28 04:04:24;;;;;;;7.60;5.05;;;;;;;15.97;78.88;100105.34;6205063;23;20322;-87
2023/09/28 04:06:50;;;;;;;7.07;4.63;;;;;;;16.02;78.91;100119.06;6204300;23;20055;-87
2023/09/28 04:09:17;;;;;;;11.32;5.03;;;;;;;16.01;78.94;100120.09;6155451;23;20024;-87
2023/09/28 04:11:44;;;;;;;5.07;4.38;;;;;;;16.00;79.30;100118.41;6206990;23;20021;-87
2023/09/28 04:14:11;;;;;;;11.65;5.05;;;;;;;15.97;79.41;100121.41;6156500;23;20035;-87
2023/09/28 04:16:39;;;;;;;8.27;5.10;;;;;;;15.96;79.54;100121.59;6179653;23;20030;-87
2023/09/28 04:19:05;;;;;;;5.95;4.88;;;;;;;15.95;79.65;100115.41;6181750;23;20040;-86
2023/09/28 04:21:33;;;;;;;7.47;5.10;;;;;;;15.97;79.38;100101.81;6156127;23;20051;-87
2023/09/28 04:24:00;;;;;;;7.80;5.10;;;;;;;15.98;79.52;100100.84;6178984;23;20020;-86
2023/09/28 04:26:27;;;;;;;5.50;4.80;;;;;;;15.98;79.17;100108.88;6180765;23;20016;-87
2023/09/28 04:28:54;;;;;;;7.80;5.15;;;;;;;15.97;79.53;100102.66;6205096;23;20020;-87
2023/09/28 04:31:21;;;;;;;8.57;5.50;;;;;;;16.00;79.58;100101.47;6155186;23;20082;-88
2023/09/28 04:33:47;;;;;;;6.88;5.00;;;;;;;15.97;79.48;100097.28;6155987;23;20481;-90
2023/09/28 04:36:14;;;;;;;6.07;4.85;;;;;;;15.98;79.62;100106.19;6155132;23;20094;-89
2023/09/28 04:38:41;;;;;;;8.60;5.78;;;;;;;15.99;79.80;100106.00;6180379;23;20020;-89
2023/09/28 04:41:08;;;;;;;8.13;5.18;;;;;;;15.97;79.97;100113.38;6156114;23;20033;-88
2023/09/28 04:43:35;;;;;;;6.38;5.10;;;;;;;15.95;80.35;100118.06;6154292;23;20452;-86
2023/09/28 04:46:05;;;;;;;7.50;5.00;;;;;;;15.93;79.72;100111.22;6180351;23;20444;-87
2023/09/28 04:48:32;;;;;;;6.05;5.43;;;;;;;15.97;79.95;100116.03;6179251;23;20027;-88
2023/09/28 04:50:59;;;;;;;6.57;4.65;;;;;;;15.94;80.39;100120.91;6208003;23;20348;-88
2023/09/28 04:53:26;;;;;;;6.45;5.35;;;;;;;15.95;80.31;100126.09;6179780;23;20021;-88
2023/09/28 04:55:53;;;;;;;6.90;5.68;;;;;;;15.94;80.45;100129.78;6180670;23;20096;-86
2023/09/28 04:58:20;;;;;;;6.03;4.95;;;;;;;15.95;80.61;100120.75;6180360;23;20021;-88
2023/09/28 05:00:46;;;;;;;8.18;4.90;;;;;;;15.95;80.75;100126.09;6155177;23;20024;-87
2023/09/28 05:03:13;;;;;;;7.03;4.65;;;;;;;15.94;80.41;100116.38;6155018;23;20024;-88
2023/09/28 05:05:40;;;;;;;5.82;4.97;;;;;;;15.92;80.73;100120.22;6154836;23;20062;-88
2023/09/28 05:08:09;;;;;;;8.52;5.32;;;;;;;15.90;80.88;100123.09;6205235;23;20019;-88
2023/09/28 05:10:36;;;;;;;11.38;5.40;;;;;;;15.90;80.85;100114.19;6180253;23;20028;-88
2023/09/28 05:13:03;;;;;;;5.63;4.97;;;;;;;15.91;80.80;100116.72;6153175;23;20028;-87
2023/09/28 05:15:30;;;;;;;5.97;5.07;;;;;;;15.91;81.00;100124.75;6203962;23;20024;-87
2023/09/28 05:17:57;;;;;;;8.85;4.85;;;;;;;15.90;80.61;100124.91;6178788;23;20460;-88
2023/09/28 05:20:24;;;;;;;12.80;5.85;;;;;;;15.92;80.48;100136.28;6178904;23;20031;-88
2023/09/28 05:22:52;;;;;;;6.88;5.00;;;;;;;15.88;80.60;100132.28;6207589;23;20337;-88
2023/09/28 05:25:19;;;;;;;6.90;5.38;;;;;;;15.89;80.42;100129.41;6179023;23;20475;-88
2023/09/28 05:27:46;;;;;;;6.43;4.47;;;;;;;15.87;80.49;100131.41;6179545;23;20029;-89
2023/09/28 05:30:13;;;;;;;9.25;5.57;;;;;;;15.89;80.67;100141.97;6177997;23;20656;-86
2023/09/28 05:32:39;;;;;;;7.32;5.43;;;;;;;15.89;80.43;100139.31;6204110;23;20024;-88
2023/09/28 05:35:06;;;;;;;8.98;5.78;;;;;;;15.86;80.54;100140.47;6154978;23;20338;-87
2023/09/28 05:37:33;;;;;;;7.68;5.03;;;;;;;15.87;80.42;100143.97;6128928;23;20035;-88
2023/09/28 05:40:00;;;;;;;6.65;5.80;;;;;;;15.84;80.64;100153.16;6154272;23;20075;-88
2023/09/28 05:42:27;;;;;;;8.23;5.32;;;;;;;15.85;80.69;100170.94;6154485;23;20149;-88
2023/09/28 05:44:54;;;;;;;7.97;5.53;;;;;;;15.81;80.71;100161.53;6179934;23;20441;-88
2023/09/28 05:47:20;;;;;;;6.60;5.32;;;;;;;15.83;80.75;100165.72;6203575;23;20456;-89
2023/09/28 05:49:49;;;;;;;6.55;5.75;;;;;;;15.83;80.76;100173.75;6154394;23;20040;-88
2023/09/28 05:52:16;;;;;;;5.85;4.93;;;;;;;15.85;80.48;100173.63;6179844;23;20027;-88
2023/09/28 05:54:43;;;;;;;8.75;5.35;;;;;;;15.86;80.99;100169.09;6154667;23;20027;-88
2023/09/28 05:57:11;;;;;;;9.60;5.72;;;;;;;15.82;81.24;100161.38;6155559;23;20021;-88
2023/09/28 05:59:38;;;;;;;7.30;5.15;;;;;;;15.86;81.03;100172.59;6181257;23;20059;-88
2023/09/28 06:02:05;;;;;;;6.40;5.47;;;;;;;15.87;81.06;100170.75;6155424;23;20020;-87
2023/09/28 06:04:33;;;;;;;8.70;5.40;;;;;;;15.88;81.41;100167.09;6156360;23;20043;-88
2023/09/28 06:06:59;;;;;;;8.82;5.43;;;;;;;15.85;81.80;100176.28;6179654;23;20035;-89
2023/09/28 06:09:26;;;;;;;7.93;5.45;;;;;;;15.85;81.76;100176.28;6179081;23;20016;-89
2023/09/28 06:11:57;;;;;;;6.90;4.95;;;;;;;15.88;81.84;100183.16;6178756;23;20079;-87
2023/09/28 06:14:23;;;;;;;7.85;5.55;;;;;;;15.89;81.95;100176.78;6204920;23;20091;-89
2023/09/28 06:16:50;;;;;;;6.75;5.03;;;;;;;15.88;82.17;100180.47;6155052;23;20047;-88
2023/09/28 06:19:17;;;;;;;7.70;5.72;;;;;;;15.88;82.40;100185.84;6180109;23;20016;-87
2023/09/28 06:21:44;;;;;;;9.82;6.10;;;;;;;15.88;82.25;100183.16;6154371;23;20347;-88
2023/09/28 06:24:11;;;;;;;7.95;5.90;;;;;;;15.86;82.22;100179.81;6180364;23;20349;-88
2023/09/28 06:26:38;;;;;;;9.15;6.10;;;;;;;15.88;82.24;100188.53;6179582;23;20047;-88
2023/09/28 06:29:09;;;;;;;8.77;6.00;;;;;;;15.88;82.32;100180.47;6157119;23;20357;-88
2023/09/28 06:31:37;;;;;;;8.25;6.10;;;;;;;15.89;82.36;100184.81;6178978;23;20088;-89
2023/09/28 06:34:04;;;;;;;8.13;6.00;;;;;;;15.87;82.51;100189.50;6181330;23;20351;-89
2023/09/28 06:36:32;;;;;;;7.90;6.40;;;;;;;15.92;82.04;100195.22;6205569;23;20025;-87
2023/09/28 06:39:03;;;;;;;9.45;6.28;;;;;;;15.90;82.22;100192.72;6206980;23;20043;-88
2023/09/28 06:41:30;;;;;;;9.10;5.65;;;;;;;15.94;81.93;100188.69;6130728;23;20291;-87
2023/09/28 06:43:57;;;;;;;7.25;5.57;;;;;;;15.96;82.19;100200.09;6155750;23;20020;-88
2023/09/28 06:46:24;;;;;;;5.97;5.30;;;;;;;15.99;82.34;100202.44;6179592;23;20404;-89
2023/09/28 06:48:51;;;;;;;9.60;6.18;;;;;;;16.03;82.19;100205.66;6180209;23;20024;-88
2023/09/28 06:51:22;;;;;;;9.90;5.80;;;;;;;16.02;82.02;100223.53;6179749;23;20032;-88
2023/09/28 06:53:49;;;;;;;9.90;6.38;;;;;;;16.02;81.66;100226.22;6181190;23;20437;-88
2023/09/28 06:56:16;;;;;;;8.38;5.55;;;;;;;16.01;81.85;100224.53;6208649;23;20024;-88
2023/09/28 06:58:43;;;;;;;8.32;5.90;;;;;;;16.00;81.74;100224.69;6206996;23;20032;-89
2023/09/28 07:01:10;;;;;;;8.35;6.30;;;;;;;16.00;81.74;100228.25;6179346;23;20035;-87
2023/09/28 07:03:37;;;;;;;10.43;5.93;;;;;;;16.02;81.80;100220.03;6180223;23;20344;-88
2023/09/28 07:06:05;;;;;;;15.52;5.93;;;;;;;16.05;81.66;100220.56;6181127;23;20028;-88
2023/09/28 07:08:32;;;;;;;10.07;6.22;;;;;;;16.10;81.84;100214.69;6180352;23;20016;-89
2023/09/28 07:10:59;;;;;;;6.57;5.85;;;;;;;16.16;81.83;100213.22;6179165;23;20392;-88
2023/09/28 07:13:26;;;;;;;12.82;6.32;;;;;;;16.21;81.51;100206.38;6153992;23;20050;-89
2023/09/28 07:15:56;;;;;;;8.35;5.63;;;;;;;16.22;81.05;100208.03;6179387;23;20071;-88
2023/09/28 07:18:25;;;;;;;10.75;6.70;;;;;;;16.27;81.30;100211.06;6180140;23;20027;-87
2023/09/28 07:20:53;;;;;;;8.73;6.57;;;;;;;16.33;81.52;100214.09;6204037;23;20078;-88
2023/09/28 07:23:20;;;;;;;8.95;6.60;;;;;;;16.34;81.17;100215.78;6205993;23;20028;-89
2023/09/28 07:25:48;;;;;;;11.68;6.93;;;;;;;16.37;81.21;100216.28;6155837;23;20020;-89
2023/09/28 07:28:15;;;;;;;11.02;6.60;;;;;;;16.40;81.21;100218.63;6156867;23;20731;-88
2023/09/28 07:30:42;;;;;;;13.02;7.40;;;;;;;16.42;81.60;100219.31;6179664;23;20024;-87
2023/09/28 07:33:13;;;;;;;7.65;6.18;;;;;;;16.45;81.58;100218.16;6180245;23;20338;-87
2023/09/28 07:35:40;;;;;;;7.90;6.80;;;;;;;16.49;81.74;100214.97;6203731;23;20025;-88
2023/09/28 07:38:07;;;;;;;7.65;6.15;;;;;;;16.53;81.84;100209.28;6153404;23;20077;-88
2023/09/28 07:40:34;;;;;;;9.25;6.47;;;;;;;16.56;82.00;100223.19;6178897;23;20027;-87
2023/09/28 07:43:14;;;;;;;10.00;6.75;;;;;;;16.59;81.64;100213.97;6204723;23;20025;-88
2023/09/28 07:45:41;;;;;;;9.30;7.30;;;;;;;16.62;82.13;100219.84;6178151;23;20035;-88
2023/09/28 07:48:08;;;;;;;9.13;6.75;;;;;;;16.62;82.36;100225.22;6203127;23;20023;-87
2023/09/28 07:50:35;;;;;;;10.57;7.07;;;;;;;16.63;82.42;100216.16;6204877;23;20349;-88
2023/09/28 07:53:02;;;;;;;9.10;6.93;;;;;;;16.67;82.84;100212.16;6155135;23;20024;-87
2023/09/28 07:55:29;;;;;;;10.68;6.75;;;;;;;16.70;82.76;100208.31;6153355;23;20069;-87
2023/09/28 07:57:58;;;;;;;9.00;7.03;;;;;;;16.73;82.94;100216.00;6179294;23;20017;-88
2023/09/28 08:00:44;;;;;;;12.15;6.65;;;;;;;16.76;82.76;100215.66;6183050;23;20031;-87
2023/09/28 08:03:12;;;;;;;12.55;6.53;;;;;;;16.79;83.13;100211.84;6178752;23;20024;-87
2023/09/28 08:05:39;;;;;;;10.77;7.53;;;;;;;16.81;83.12;100208.00;6178640;23;20028;-88
2023/09/28 08:08:06;;;;;;;10.07;6.93;;;;;;;16.86;82.97;100207.50;6203239;23;20012;-87
2023/09/28 08:10:43;;;;;;;10.68;7.38;;;;;;;16.88;82.90;100217.06;6183640;23;20055;-87
2023/09/28 08:13:10;;;;;;;8.43;6.32;;;;;;;16.91;83.02;100219.38;6154612;23;20028;-86
2023/09/28 08:15:41;;;;;;;8.63;6.30;;;;;;;16.93;82.90;100214.69;6179148;23;20665;-88
2023/09/28 08:18:08;;;;;;;9.45;6.07;;;;;;;16.97;83.20;100217.03;6204986;23;20348;-88
2023/09/28 08:20:35;;;;;;;8.52;6.68;;;;;;;16.95;83.14;100221.75;6204099;23;20028;-87
2023/09/28 08:23:04;;;;;;;10.43;6.97;;;;;;;16.98;83.01;100235.66;6180100;23;20091;-87
2023/09/28 08:25:33;;;;;;;10.75;6.93;;;;;;;17.01;82.81;100237.19;6202793;23;20027;-87
2023/09/28 08:28:00;;;;;;;9.63;6.53;;;;;;;17.04;82.73;100228.78;6203409;23;20345;-87
2023/09/28 08:30:27;;;;;;;11.15;6.70;;;;;;;17.06;82.71;100230.28;6178159;23;20029;-86
2023/09/28 08:32:54;;;;;;;8.38;6.22;;;;;;;17.08;83.00;100228.28;6179379;23;20463;-87
2023/09/28 08:35:21;;;;;;;8.82;6.43;;;;;;;17.11;82.63;100227.94;6152453;23;20379;-86
2023/09/28 08:37:48;;;;;;;9.90;6.07;;;;;;;17.13;83.08;100225.09;6203125;23;20023;-87
2023/09/28 08:40:14;;;;;;;10.43;5.55;;;;;;;17.17;83.62;100225.59;6152895;23;20675;-86
2023/09/28 08:42:45;;;;;;;8.65;6.40;;;;;;;17.22;83.73;100223.25;6178323;23;20024;-88
2023/09/28 08:45:15;;;;;;;8.68;5.97;;;;;;;17.25;83.83;100229.13;6179783;23;20032;-87
2023/09/28 08:47:49;;;;;;;8.10;5.57;;;;;;;17.28;83.75;100225.25;6203917;23;20021;-88
2023/09/28 08:50:25;;;;;;;9.75;5.88;;;;;;;17.31;83.61;100227.59;6154192;23;20458;-87
2023/09/28 08:52:54;;;;;;;7.15;5.85;;;;;;;17.35;83.67;100220.88;6201937;23;20507;-86
2023/09/28 08:55:21;;;;;;;10.13;5.47;;;;;;;17.38;83.68;100220.56;6152905;23;20024;-86
2023/09/28 08:57:48;;;;;;;9.00;5.40;;;;;;;17.43;83.56;100234.31;6179014;23;20015;-87
2023/09/28 09:00:15;;;;;;;11.70;6.38;;;;;;;17.44;83.21;100229.75;6178096;23;20471;-87
2023/09/28 09:02:43;;;;;;;9.13;6.00;;;;;;;17.47;82.99;100229.41;6152928;23;20020;-86
2023/09/28 09:05:12;;;;;;;8.20;5.20;;;;;;;17.50;83.53;100234.44;6155991;23;20024;-85
2023/09/28 09:07:42;;;;;;;7.80;5.47;;;;;;;17.54;83.36;100231.25;6152360;23;20024;-86
2023/09/28 09:10:15;;;;;;;7.80;5.35;;;;;;;17.56;82.98;100225.72;6178322;23;20377;-87
2023/09/28 09:12:42;;;;;;;;;;;;;;;17.45;83.19;100234.13;6204150;23;20096;-86
2023/09/28 09:15:09;;;;;;;8.40;5.45;;;;;;;17.60;82.87;100236.94;6177350;23;20360;-87
2023/09/28 09:17:37;;;;;;;8.23;4.75;;;;;;;17.65;82.42;100234.56;6153506;23;20020;-86
2023/09/28 09:20:08;;;;;;;8.73;5.47;;;;;;;17.70;82.37;100232.22;6179020;23;20025;-86
2023/09/28 09:22:35;;;;;;;10.13;5.72;;;;;;;17.71;82.06;100225.84;6203886;23;20041;-86
2023/09/28 09:25:20;;;;;;;7.18;5.45;;;;;;;17.75;82.11;100235.22;6202452;23;20091;-86
2023/09/28 09:27:48;;;;;;;7.47;5.13;;;;;;;17.78;82.06;100242.94;6153199;23;20439;-86
2023/09/28 09:30:15;;;;;;;7.00;4.70;;;;;;;17.81;81.80;100234.59;6153171;23;20044;-86
2023/09/28 09:32:42;;;;;;;6.18;4.60;;;;;;;17.83;82.25;100232.53;6152561;23;20023;-86
2023/09/28 09:35:10;;;;;;;6.93;4.82;;;;;;;17.88;82.36;100232.84;6181494;23;20031;-86
2023/09/28 09:37:44;;;;;;;9.90;5.57;;;;;;;17.90;82.43;100230.84;6205582;23;20024;-86
2023/09/28 09:40:15;;;;;;;7.63;5.40;;;;;;;17.94;82.44;100231.34;6180041;23;20052;-87
2023/09/28 09:42:42;;;;;;;5.95;4.50;;;;;;;17.98;82.24;100229.97;6205085;23;20020;-88
2023/09/28 09:45:11;;;;;;;8.23;4.70;;;;;;;18.00;82.61;100230.63;6180611;23;20028;-87
2023/09/28 09:47:48;;;;;;;8.40;5.45;;;;;;;17.99;82.57;100235.19;6180016;23;20017;-87
2023/09/28 09:50:16;;;;;;;7.57;5.22;;;;;;;18.05;82.58;100233.63;6205164;23;20480;-86
2023/09/28 09:52:46;;;;;;;6.15;5.55;;;;;;;18.09;82.62;100234.13;6180260;23;20100;-86
2023/09/28 09:55:14;;;;;;;7.95;5.22;;;;;;;18.10;82.50;100225.06;6180702;23;20021;-87
2023/09/28 09:57:42;;;;;;;7.45;4.53;;;;;;;18.13;82.51;100213.94;6205175;23;20021;-86
2023/09/28 10:00:09;;;;;;;7.40;5.03;;;;;;;18.16;82.20;100210.91;6181827;23;20055;-87
2023/09/28 10:02:39;;;;;;;8.68;5.15;;;;;;;18.21;82.46;100219.28;6181913;23;20020;-87
2023/09/28 10:05:12;;;;;;;9.50;5.28;;;;;;;18.20;82.39;100210.38;6204486;23;20021;-87
2023/09/28 10:07:39;;;;;;;6.70;4.85;;;;;;;18.22;82.39;100221.81;6179541;23;20098;-86
2023/09/28 10:10:09;;;;;;;6.85;5.10;;;;;;;18.25;82.26;100219.78;6205950;23;20458;-87
2023/09/28 10:12:37;;;;;;;7.10;4.90;;;;;;;18.29;82.10;100211.16;6180222;23;20024;-87
2023/09/28 10:15:05;;;;;;;8.00;5.43;;;;;;;18.33;81.94;100214.34;6181920;23;20043;-86
2023/09/28 10:17:32;;;;;;;8.70;5.10;;;;;;;18.35;81.85;100217.72;6205007;23;20013;-87
2023/09/28 10:20:00;;;;;;;8.32;4.68;;;;;;;18.36;81.64;100216.69;6156829;23;20103;-86
2023/09/28 10:22:28;;;;;;;8.07;5.20;;;;;;;18.38;81.74;100220.88;6180368;23;20095;-86
2023/09/28 10:24:56;;;;;;;6.53;4.93;;;;;;;18.45;82.12;100221.00;6206648;23;20044;-86
2023/09/28 10:27:22;;;;;;;8.20;4.88;;;;;;;18.47;81.95;100210.06;6180948;23;20016;-87
2023/09/28 10:29:49;;;;;;;9.10;5.00;;;;;;;18.47;81.51;100204.69;6156219;23;20095;-87
2023/09/28 10:32:27;;;;;;;7.20;4.97;;;;;;;18.46;81.22;100198.47;6180843;23;20028;-88
2023/09/28 10:35:27;;;;;;;6.22;4.63;;;;;;;18.47;80.57;100192.09;6206212;23;20016;-87
2023/09/28 10:38:20;;;;;;;7.00;4.82;;;;;;;18.49;80.46;100190.03;6154110;23;20088;-86
2023/09/28 10:40:48;;;;;;;7.03;4.35;;;;;;;18.56;80.90;100199.06;6181120;23;20025;-87
2023/09/28 10:43:30;;;;;;;9.52;4.97;;;;;;;18.56;80.55;100196.38;6205600;23;20338;-86
2023/09/28 10:45:57;;;;;;;8.07;5.00;;;;;;;18.63;81.15;100188.44;6205488;23;20024;-86
2023/09/28 10:48:24;;;;;;;10.00;4.57;;;;;;;18.67;81.20;100189.75;6204678;23;20100;-87
2023/09/28 10:50:52;;;;;;;6.78;4.82;;;;;;;18.71;81.38;100187.53;6181185;23;20037;-87
2023/09/28 10:53:19;;;;;;;7.18;4.88;;;;;;;18.74;81.12;100187.19;6204408;23;20071;-86
2023/09/28 10:55:46;;;;;;;6.93;4.43;;;;;;;18.78;81.01;100185.84;6180844;23;20017;-87
2023/09/28 10:58:13;;;;;;;7.90;4.40;;;;;;;18.82;80.80;100176.38;6181157;23;20070;-86
2023/09/28 11:00:41;;;;;;;7.68;4.65;;;;;;;18.86;80.58;100185.78;6156012;23;20025;-86
2023/09/28 11:03:08;;;;;;;5.30;4.38;;;;;;;18.89;80.64;100184.56;6205449;23;20075;-87
2023/09/28 11:05:36;;;;;;;7.93;4.68;;;;;;;18.91;80.54;100185.25;6156333;23;20340;-87
2023/09/28 11:08:04;;;;;;;8.40;4.72;;;;;;;18.93;80.22;100186.72;6181305;23;20024;-87
2023/09/28 11:10:31;;;;;;;8.02;4.93;;;;;;;18.93;80.38;100186.72;6180636;23;20023;-87
2023/09/28 11:12:58;;;;;;;6.63;4.47;;;;;;;18.99;79.84;100191.38;6206529;23;20033;-87
2023/09/28 11:15:25;;;;;;;5.50;4.15;;;;;;;19.01;79.92;100183.97;6205458;23;20042;-87
2023/09/28 11:17:51;;;;;;;5.95;4.35;;;;;;;19.06;79.61;100188.81;6155848;23;20018;-87
2023/09/28 11:20:19;;;;;;;7.75;4.80;;;;;;;19.12;79.70;100184.53;6155781;23;20024;-86
2023/09/28 11:22:52;;;;;;;10.25;4.28;;;;;;;19.16;79.41;100180.44;6156395;23;20075;-87
2023/09/28 11:25:19;;;;;;;;;;;;;;;19.05;79.53;100177.19;6182060;23;20024;-86
2023/09/28 11:28:09;;;;;;;5.68;4.05;;;;;;;19.16;79.20;100184.00;6206116;23;20235;-86
2023/09/28 11:30:39;;;;;;;7.40;4.10;;;;;;;19.21;79.00;100186.97;6155120;23;20044;-87
2023/09/28 11:33:07;;;;;;;5.97;3.90;;;;;;;19.26;78.91;100178.34;6181884;23;20087;-86